createdAt,value
2023-04-19T01:06:39.625Z,2.30
2023-04-19T01:09:07.537Z,2.93
2023-04-19T01:11:37.147Z,2.60
2023-04-19T01:14:12.093Z,3.00
2023-04-19T01:16:51.500Z,2.70
2023-04-19T01:19:19.400Z,2.80
2023-04-19T01:22:05.200Z,2.73
2023-04-19T01:24:40.723Z,2.93
2023-04-19T01:28:04.632Z,2.70
2023-04-19T01:30:41.298Z,1.93
2023-04-19T01:33:18.995Z,2.40
2023-04-19T01:36:04.128Z,3.10
2023-04-19T01:38:53.351Z,2.13
2023-04-19T01:41:31.596Z,2.33
2023-04-19T01:44:11.953Z,3.13
2023-04-19T01:46:39.735Z,3.27
2023-04-19T01:49:19.398Z,2.97
2023-04-19T01:52:17.103Z,2.93
2023-04-19T01:55:14.582Z,2.70
2023-04-19T01:58:29.556Z,2.83
2023-04-19T02:01:02.638Z,1.80
2023-04-19T02:03:44.842Z,1.97
2023-04-19T02:06:15.554Z,2.57
2023-04-19T02:08:59.450Z,2.20
2023-04-19T02:11:38.140Z,2.83
2023-04-19T02:14:34.456Z,2.37
2023-04-19T02:17:14.364Z,2.30
2023-04-19T02:23:29.260Z,2.60
2023-04-19T02:26:30.771Z,3.00
2023-04-19T02:29:08.353Z,2.30
2023-04-19T02:31:47.085Z,1.70
2023-04-19T02:34:17.711Z,2.07
2023-04-19T02:36:53.633Z,2.40
2023-04-19T02:39:27.338Z,2.57
2023-04-19T02:42:03.013Z,2.37
2023-04-19T02:44:58.307Z,2.63
2023-04-19T02:47:41.141Z,2.30
2023-04-19T02:50:32.584Z,2.50
2023-04-19T02:53:10.518Z,2.50
2023-04-19T02:55:51.487Z,2.30
2023-04-19T02:58:27.995Z,1.60
2023-04-19T03:01:07.338Z,2.40
2023-04-19T03:03:37.469Z,1.80
2023-04-19T03:06:05.953Z,2.77
2023-04-19T03:08:41.405Z,2.50
2023-04-19T03:11:28.007Z,2.20
2023-04-19T03:14:17.883Z,2.27
2023-04-19T03:16:59.111Z,2.20
2023-04-19T03:19:31.765Z,2.40
2023-04-19T03:22:29.177Z,1.97
2023-04-19T03:24:58.803Z,1.87
2023-04-19T03:27:39.965Z,1.97
2023-04-19T03:30:31.402Z,2.20
2023-04-19T03:33:00.596Z,2.20
2023-04-19T03:35:37.512Z,1.90
2023-04-19T03:38:28.951Z,2.20
2023-04-19T03:41:30.855Z,1.57
2023-04-19T03:44:01.273Z,1.80
2023-04-19T03:46:43.479Z,1.90
2023-04-19T03:49:13.300Z,1.90
2023-04-19T03:51:49.499Z,1.87
2023-04-19T03:54:21.172Z,2.07
2023-04-19T03:56:54.963Z,1.30
2023-04-19T03:59:35.924Z,1.70
2023-04-19T04:02:05.300Z,1.90
2023-04-19T04:04:34.611Z,1.73
2023-04-19T04:07:16.006Z,2.00
2023-04-19T04:09:55.944Z,2.17
2023-04-19T04:12:24.654Z,2.10
2023-04-19T04:14:55.270Z,2.23
2023-04-19T04:17:31.845Z,1.60
2023-04-19T04:20:08.374Z,1.60
2023-04-19T04:22:36.126Z,1.50
2023-04-19T04:25:04.776Z,1.73
2023-04-19T04:28:00.547Z,1.97
2023-04-19T04:30:38.440Z,1.70
2023-04-19T04:33:09.789Z,1.47
2023-04-19T04:36:07.216Z,1.90
2023-04-19T04:38:38.348Z,1.53
2023-04-19T04:41:51.539Z,1.80
2023-04-19T04:44:28.398Z,1.83
2023-04-19T04:47:03.433Z,1.50
2023-04-19T04:49:40.195Z,1.80
2023-04-19T04:52:36.821Z,2.03
2023-04-19T04:55:52.644Z,1.63
2023-04-19T04:58:21.307Z,1.30
2023-04-19T05:00:50.010Z,2.20
2023-04-19T05:03:27.616Z,1.67
2023-04-19T05:05:55.068Z,1.60
2023-04-19T05:08:29.084Z,1.43
2023-04-19T05:11:18.123Z,1.87
2023-04-19T05:13:48.252Z,1.70
2023-04-19T05:19:00.836Z,1.53
2023-04-19T05:21:48.897Z,1.43
2023-04-19T05:24:28.039Z,2.03
2023-04-19T05:26:57.514Z,1.70
2023-04-19T05:29:26.271Z,1.23
2023-04-19T05:31:55.963Z,1.53
2023-04-19T05:34:29.620Z,1.63
2023-04-19T05:37:24.683Z,1.50
2023-04-19T05:40:12.526Z,1.43
2023-04-19T05:42:52.268Z,1.90
2023-04-19T05:45:23.775Z,1.23
2023-04-19T05:47:54.864Z,2.17
2023-04-19T05:50:23.448Z,1.63
2023-04-19T05:53:16.525Z,1.70
2023-04-19T05:55:46.031Z,2.13
2023-04-19T05:58:13.656Z,1.50
2023-04-19T06:01:00.158Z,1.97
2023-04-19T06:03:47.112Z,1.97
2023-04-19T06:06:15.509Z,2.27
2023-04-19T06:08:49.080Z,1.83
2023-04-19T06:11:50.144Z,1.63
2023-04-19T06:14:19.738Z,2.20
2023-04-19T06:16:54.563Z,1.50
2023-04-19T06:19:23.765Z,2.27
2023-04-19T06:22:01.303Z,1.57
2023-04-19T06:24:29.998Z,1.93
2023-04-19T06:27:04.713Z,2.00
2023-04-19T06:29:38.394Z,1.53
2023-04-19T06:32:27.652Z,1.87
2023-04-19T06:34:55.536Z,2.83
2023-04-19T06:37:23.625Z,2.27
2023-04-19T06:39:58.631Z,1.80
2023-04-19T06:42:28.612Z,2.00
2023-04-19T06:45:09.015Z,3.03
2023-04-19T06:47:52.925Z,2.70
2023-04-19T06:50:24.732Z,2.70
2023-04-19T06:52:55.780Z,3.47
2023-04-19T06:55:23.839Z,2.70
2023-04-19T06:57:54.744Z,3.67
2023-04-19T07:00:28.560Z,3.53
2023-04-19T07:03:05.927Z,14.27
2023-04-19T07:05:33.714Z,15.40
2023-04-19T07:08:10.031Z,6.60
2023-04-19T07:10:47.981Z,5.20
2023-04-19T07:13:19.675Z,7.57
2023-04-19T07:15:58.506Z,5.90
2023-04-19T07:18:37.471Z,6.80
2023-04-19T07:21:38.924Z,5.67
2023-04-19T07:24:08.055Z,3.70
2023-04-19T07:26:58.068Z,3.03
2023-04-19T07:29:25.853Z,5.00
2023-04-19T07:32:02.240Z,3.23
2023-04-19T07:35:22.806Z,3.17
2023-04-19T07:37:52.794Z,3.27
2023-04-19T07:40:21.699Z,3.97
2023-04-19T07:43:08.393Z,4.50
2023-04-19T07:45:37.146Z,2.90
2023-04-19T07:48:29.466Z,3.03
2023-04-19T07:50:59.705Z,3.60
2023-04-19T07:53:29.373Z,3.27
2023-04-19T07:55:58.824Z,7.80
2023-04-19T07:58:28.002Z,3.47
2023-04-19T08:00:57.062Z,3.83
2023-04-19T08:03:25.413Z,4.13
2023-04-19T08:06:13.374Z,3.97
2023-04-19T08:08:41.041Z,3.33
2023-04-19T08:11:08.656Z,2.43
2023-04-19T08:13:37.094Z,3.10
2023-04-19T08:18:37.846Z,3.77
2023-04-19T08:21:09.260Z,3.53
2023-04-19T08:23:47.168Z,2.50
2023-04-19T08:26:17.671Z,2.67
2023-04-19T08:28:45.299Z,2.20
2023-04-19T08:31:14.220Z,2.50
2023-04-19T08:33:41.871Z,2.47
2023-04-19T08:36:10.661Z,1.80
2023-04-19T08:38:39.738Z,2.20
2023-04-19T08:41:07.153Z,3.33
2023-04-19T08:43:38.118Z,3.70
2023-04-19T08:46:06.797Z,2.87
2023-04-19T08:48:37.666Z,2.40
2023-04-19T08:59:29.745Z,2.10
2023-04-19T09:02:01.398Z,2.17
2023-04-19T09:04:36.746Z,2.60
2023-04-19T09:07:05.259Z,3.30
2023-04-19T09:09:39.170Z,2.37
2023-04-19T09:16:04.606Z,1.90
2023-04-19T09:19:23.518Z,1.83
2023-04-19T21:22:14.396Z,3.83
2023-04-19T21:24:41.909Z,4.20
2023-04-19T21:27:09.497Z,4.20
2023-04-19T21:33:25.854Z,4.10
2023-04-19T21:35:53.399Z,5.10
2023-04-19T21:38:20.889Z,5.70
2023-04-19T21:40:49.875Z,4.90
2023-04-19T21:43:17.676Z,5.60
2023-04-19T21:45:47.143Z,4.70
2023-04-19T21:48:14.923Z,4.50
2023-04-19T21:50:42.972Z,4.40
2023-04-19T21:53:10.779Z,4.67
2023-04-19T21:55:39.918Z,4.53
2023-04-19T21:58:07.695Z,5.67
2023-04-19T22:00:36.681Z,5.73
2023-04-19T22:03:06.525Z,5.90
2023-04-19T22:05:34.324Z,4.77
2023-04-19T22:08:07.721Z,5.20
2023-04-19T22:10:35.760Z,4.63
2023-04-19T22:13:04.071Z,4.70
2023-04-19T22:15:32.534Z,5.23
2023-04-19T22:18:03.600Z,4.67
2023-04-19T22:20:32.756Z,5.10
2023-04-19T22:23:00.631Z,4.90
2023-04-19T22:25:31.908Z,7.23
2023-04-19T22:27:59.417Z,4.73
2023-04-19T22:30:27.513Z,6.40
2023-04-19T22:32:55.375Z,4.97
2023-04-19T22:35:23.171Z,4.60
2023-04-19T22:37:51.048Z,5.30
2023-04-19T22:40:18.694Z,4.87
2023-04-19T22:42:46.216Z,6.00
2023-04-19T22:45:14.110Z,4.80
2023-04-19T22:47:44.192Z,5.33
2023-04-19T22:50:12.263Z,5.37
2023-04-19T22:52:42.003Z,5.57
2023-04-19T22:55:11.699Z,4.70
2023-04-19T22:57:39.360Z,4.67
2023-04-19T23:00:07.964Z,4.70
2023-04-19T23:02:36.197Z,5.80
2023-04-19T23:05:05.233Z,4.70
2023-04-19T23:07:33.759Z,5.63
2023-04-19T23:10:01.681Z,5.07
2023-04-19T23:12:31.852Z,5.80
2023-04-19T23:14:59.958Z,4.50
2023-04-19T23:17:29.077Z,5.70
2023-04-19T23:19:58.936Z,4.87
2023-04-19T23:22:27.048Z,5.70
2023-04-19T23:24:56.799Z,4.93
2023-04-19T23:27:24.397Z,4.80
2023-04-19T23:29:52.112Z,5.33
2023-04-19T23:32:19.874Z,5.87
2023-04-19T23:34:48.019Z,5.10
2023-04-19T23:37:17.711Z,5.07
2023-04-19T23:39:45.471Z,4.13
2023-04-19T23:42:13.073Z,5.00
2023-04-19T23:44:42.771Z,5.00
2023-04-19T23:47:12.273Z,4.30
2023-04-19T23:49:39.880Z,4.80
2023-04-19T23:52:07.541Z,5.37
2023-04-19T23:54:35.177Z,5.43
2023-04-19T23:57:06.411Z,5.00
2023-04-19T23:59:34.610Z,4.23
